Time;durP1;ratioP1;P1;durP2;ratioP2;P2;SDS_P1;SDS_P2;PMS_P1;PMS_P2;Temp;Humidity;BMP_temperature;BMP_pressure;BME280_temperature;BME280_humidity;BME280_pressure;Samples;Min_cycle;Max_cycle;Signal;HPM_P1;HPM_P2
2023/03/24 00:00:20;;;;;;;20.67;17.02;;;;;;;10.04;94.91;95358.28;4949852;29;20062;-70
2023/03/24 00:02:47;;;;;;;32.92;27.50;;;;;;;10.22;94.09;95361.94;4945521;29;20027;-70
2023/03/24 00:05:22;;;;;;;23.80;19.83;;;;;;;10.17;94.79;95362.38;4955838;29;20114;-70
2023/03/24 00:07:48;;;;;;;23.33;18.42;;;;;;;9.99;95.62;95367.59;4956290;29;20042;-69
2023/03/24 00:10:17;;;;;;;18.70;14.73;;;;;;;10.13;95.06;95353.94;4952018;28;20598;-69
2023/03/24 00:12:43;;;;;;;11.75;10.40;;;;;;;10.07;95.36;95345.84;4945333;29;20032;-69
2023/03/24 00:15:17;;;;;;;14.32;12.93;;;;;;;10.02;96.64;95348.91;4949679;29;20035;-69
2023/03/24 00:17:44;;;;;;;12.52;11.27;;;;;;;9.90;97.99;95340.38;4938136;29;20119;-69
2023/03/24 00:20:13;;;;;;;13.32;10.93;;;;;;;9.84;98.40;95326.00;4938383;29;20090;-69
2023/03/24 00:22:49;;;;;;;13.48;10.73;;;;;;;9.87;97.45;95328.34;4949556;29;20023;-70
2023/03/24 00:25:26;;;;;;;16.02;10.65;;;;;;;9.90;97.14;95319.34;4955109;29;20480;-69
2023/03/24 00:27:52;;;;;;;18.42;12.95;;;;;;;9.84;98.61;95317.31;4946857;29;20027;-69
2023/03/24 00:30:18;;;;;;;13.77;11.82;;;;;;;9.87;97.92;95323.09;4956356;29;20516;-69
2023/03/24 00:32:45;;;;;;;13.07;11.00;;;;;;;9.87;98.75;95309.94;4946130;29;20027;-69
2023/03/24 00:35:13;;;;;;;14.90;11.13;;;;;;;9.84;98.74;95310.25;4952596;29;20059;-69
2023/03/24 00:37:40;;;;;;;14.07;9.70;;;;;;;9.77;99.69;95308.34;4947431;28;20036;-69
2023/03/24 00:40:12;;;;;;;17.63;15.82;;;;;;;9.77;99.00;95297.81;4951313;29;20539;-69
2023/03/24 00:42:45;;;;;;;14.27;12.70;;;;;;;9.75;99.49;95295.34;4955263;29;20678;-69
2023/03/24 00:45:21;;;;;;;15.10;12.15;;;;;;;9.77;99.79;95297.81;4944159;29;20038;-69
2023/03/24 00:47:48;;;;;;;12.88;9.55;;;;;;;9.78;99.21;95299.47;4943872;29;20058;-70
2023/03/24 00:50:19;;;;;;;12.80;9.60;;;;;;;9.70;99.31;95295.78;4945023;29;20792;-70
2023/03/24 00:52:47;;;;;;;10.70;9.60;;;;;;;9.76;98.94;95299.63;4946228;29;20031;-69
2023/03/24 00:55:14;;;;;;;10.45;9.45;;;;;;;9.71;99.53;95302.69;4939213;29;20082;-69
2023/03/24 00:57:40;;;;;;;13.32;9.25;;;;;;;10.23;95.78;95308.34;4953694;29;20035;-69
2023/03/24 01:00:18;;;;;;;10.90;9.73;;;;;;;10.02;95.90;95307.63;4949788;29;20544;-69
2023/03/24 01:02:45;;;;;;;11.50;8.60;;;;;;;9.84;97.37;95298.91;4954619;29;20074;-69
2023/03/24 01:05:11;;;;;;;15.55;12.68;;;;;;;9.86;97.56;95308.28;4949929;29;20051;-69
2023/03/24 01:07:40;;;;;;;11.13;9.85;;;;;;;9.79;97.78;95295.88;4944901;29;20032;-70
2023/03/24 01:10:07;;;;;;;10.77;8.52;;;;;;;9.79;97.86;95298.50;4951982;29;20038;-69
2023/03/24 01:12:36;;;;;;;10.45;9.15;;;;;;;9.70;98.70;95290.53;4945241;29;21290;-69
2023/03/24 01:15:06;;;;;;;11.55;9.93;;;;;;;9.80;98.24;95287.00;4956696;29;20031;-71
2023/03/24 01:17:31;;;;;;;10.40;9.30;;;;;;;9.74;98.80;95297.13;4955052;29;20027;-70
2023/03/24 01:19:57;;;;;;;10.68;9.57;;;;;;;9.80;98.15;95298.38;4948595;29;20042;-70
2023/03/24 01:22:28;;;;;;;11.00;8.68;;;;;;;9.85;98.71;95297.94;4947310;29;20028;-69
2023/03/24 01:24:54;;;;;;;9.02;7.97;;;;;;;9.89;99.21;95297.47;4948245;29;20035;-69
2023/03/24 01:27:19;;;;;;;10.88;7.55;;;;;;;9.98;98.67;95289.69;4953966;29;20125;-70
2023/03/24 01:29:45;;;;;;;9.85;6.82;;;;;;;9.94;99.25;95289.16;4954359;29;20118;-69
2023/03/24 01:32:11;;;;;;;7.30;6.18;;;;;;;10.09;98.10;95278.94;4949690;29;20039;-69
2023/03/24 01:34:36;;;;;;;7.45;5.40;;;;;;;10.04;96.08;95279.38;4946745;29;20143;-69
2023/03/24 01:37:02;;;;;;;12.13;6.05;;;;;;;9.98;96.24;95279.16;4954164;29;20510;-70
2023/03/24 01:39:28;;;;;;;7.53;5.93;;;;;;;9.91;97.30;95283.34;4942814;29;20040;-70
2023/03/24 01:41:55;;;;;;;8.88;6.13;;;;;;;9.98;96.24;95274.72;4948698;29;20023;-69
2023/03/24 01:44:26;;;;;;;10.60;5.85;;;;;;;9.97;95.49;95294.09;4954427;29;20043;-70
2023/03/24 01:46:52;;;;;;;6.38;5.78;;;;;;;9.99;95.00;95280.81;4951269;29;20091;-70
2023/03/24 01:49:19;;;;;;;5.53;5.03;;;;;;;9.97;94.48;95280.97;4952218;29;20031;-70
2023/03/24 01:51:47;;;;;;;9.90;4.60;;;;;;;10.04;92.70;95279.38;4947347;29;20031;-70
2023/03/24 01:54:21;;;;;;;4.13;3.60;;;;;;;10.30;90.38;95294.44;4950863;29;20039;-69
2023/03/24 01:56:56;;;;;;;6.40;5.30;;;;;;;10.17;94.01;95299.25;4953496;29;20496;-69
2023/03/24 01:59:23;;;;;;;;;;;;;;;10.09;92.83;95293.91;4945815;29;20647;-69
2023/03/24 02:01:51;;;;;;;7.38;4.53;;;;;;;10.16;92.67;95301.03;4950618;29;19923;-70
2023/03/24 02:04:16;;;;;;;5.18;4.50;;;;;;;10.14;92.74;95299.53;4950864;28;20034;-69
2023/03/24 02:06:44;;;;;;;5.18;4.53;;;;;;;10.23;92.28;95293.38;4930296;29;20030;-69
2023/03/24 02:09:12;;;;;;;7.80;5.43;;;;;;;10.21;93.12;95294.53;4944800;29;20176;-69
2023/03/24 02:11:39;;;;;;;9.20;4.75;;;;;;;10.25;92.56;95278.25;4942548;29;20027;-69
2023/03/24 02:14:06;;;;;;;5.43;4.43;;;;;;;10.28;91.94;95259.56;4949024;29;20464;-69
2023/03/24 02:16:56;;;;;;;6.03;4.40;;;;;;;10.26;92.05;95250.16;4952023;29;20518;-69
2023/03/24 02:19:36;;;;;;;6.57;4.25;;;;;;;10.22;91.90;95239.09;4941603;29;20035;-69
2023/03/24 02:22:12;;;;;;;6.78;4.72;;;;;;;10.22;92.63;95238.28;4945436;28;20049;-69
2023/03/24 02:24:40;;;;;;;5.63;4.78;;;;;;;10.20;92.83;95251.59;4942072;29;20484;-69
2023/03/24 02:27:37;;;;;;;7.97;4.65;;;;;;;10.13;94.57;95246.09;4947968;29;20563;-69
2023/03/24 02:30:17;;;;;;;4.50;4.10;;;;;;;10.12;95.51;95259.41;4942608;29;20039;-69
2023/03/24 02:33:12;;;;;;;7.63;4.85;;;;;;;10.35;93.64;95290.53;4949427;28;20038;-69
2023/03/24 02:35:38;;;;;;;7.13;4.68;;;;;;;10.57;91.95;95295.38;4952916;28;20031;-69
2023/03/24 02:38:20;;;;;;;5.22;4.70;;;;;;;10.39;92.19;95291.88;4957424;28;20544;-69
2023/03/24 02:40:55;;;;;;;5.63;5.03;;;;;;;10.30;92.96;95299.72;4943620;29;20027;-69
2023/03/24 02:43:21;;;;;;;;;;;;;;;10.17;96.14;95297.47;4951056;29;20024;-69
2023/03/24 02:45:56;;;;;;;;;;;;;;;10.06;95.78;95292.38;4948055;29;19925;-69
2023/03/24 02:48:43;;;;;;;5.78;5.03;;;;;;;10.13;95.23;95300.53;4931040;29;19950;-69
2023/03/24 02:51:17;;;;;;;6.18;4.70;;;;;;;10.04;95.96;95291.72;4950728;29;20038;-69
2023/03/24 02:54:04;;;;;;;5.72;4.75;;;;;;;10.11;95.91;95305.09;4955455;29;20031;-69
2023/03/24 02:57:17;;;;;;;9.15;5.45;;;;;;;10.30;93.94;95299.72;4950227;29;20031;-69
2023/03/24 02:59:53;;;;;;;7.20;5.10;;;;;;;10.11;96.05;95292.75;4894116;29;20259;-69
2023/03/24 03:02:32;;;;;;;6.90;4.93;;;;;;;10.07;96.81;95301.13;4951027;29;20039;-69
2023/03/24 03:05:04;;;;;;;7.20;5.18;;;;;;;10.06;97.39;95296.81;4943912;29;20484;-69
2023/03/24 03:07:36;;;;;;;7.32;5.50;;;;;;;10.00;97.08;95293.81;4954427;29;20023;-69
2023/03/24 03:10:24;;;;;;;7.43;5.80;;;;;;;10.01;97.87;95290.19;4950719;28;20023;-69
2023/03/24 03:12:54;;;;;;;6.30;5.72;;;;;;;9.99;97.49;95292.16;4947994;29;20118;-69
2023/03/24 03:15:26;;;;;;;6.93;6.00;;;;;;;9.99;97.31;95292.16;4952546;29;20027;-69
2023/03/24 03:18:16;;;;;;;7.15;6.13;;;;;;;10.06;97.29;95302.06;4953502;29;20035;-69
2023/03/24 03:20:49;;;;;;;7.30;6.60;;;;;;;9.91;99.10;95299.97;4946086;29;20063;-70
2023/03/24 03:23:18;;;;;;;7.43;6.35;;;;;;;9.92;99.63;95298.16;4964262;28;20063;-69
2023/03/24 03:25:50;;;;;;;7.78;6.28;;;;;;;9.95;99.29;95295.25;4951694;29;20495;-69
2023/03/24 03:28:20;;;;;;;8.55;7.18;;;;;;;10.09;99.04;95297.34;4951819;29;20031;-69
2023/03/24 03:30:51;;;;;;;9.65;7.82;;;;;;;10.11;99.53;95290.13;4955695;29;20046;-69
2023/03/24 03:33:24;;;;;;;9.77;6.85;;;;;;;9.97;99.35;95304.63;4947582;29;20053;-69
2023/03/24 03:36:21;;;;;;;9.85;6.95;;;;;;;9.91;100.00;95299.97;4955324;28;20031;-69
2023/03/24 03:39:14;;;;;;;8.07;7.28;;;;;;;9.85;100.00;95304.00;4948029;29;20102;-69
2023/03/24 03:41:41;;;;;;;7.47;6.78;;;;;;;9.86;100.00;95282.00;4944393;29;20127;-69
2023/03/24 03:44:07;;;;;;;9.40;7.28;;;;;;;9.96;100.00;95279.31;4952686;29;20035;-69
2023/03/24 03:46:34;;;;;;;8.00;7.28;;;;;;;9.86;100.00;95271.47;4945886;29;20170;-69
2023/03/24 03:48:59;;;;;;;8.55;7.85;;;;;;;9.80;100.00;95276.50;4932617;29;20075;-69
2023/03/24 03:51:25;;;;;;;10.93;7.43;;;;;;;9.79;100.00;95282.72;4929384;29;20560;-69
2023/03/24 03:53:57;;;;;;;8.27;7.30;;;;;;;9.75;100.00;95275.13;4947283;29;20027;-69
2023/03/24 03:56:25;;;;;;;8.45;7.65;;;;;;;9.82;100.00;95258.75;4954008;28;20126;-69
2023/03/24 03:58:52;;;;;;;10.45;9.40;;;;;;;9.69;100.00;95259.13;4953717;29;20125;-69
2023/03/24 04:01:21;;;;;;;9.82;8.93;;;;;;;9.67;100.00;95261.91;4953191;28;20035;-69
2023/03/24 04:04:04;;;;;;;9.75;8.82;;;;;;;9.66;100.00;95262.88;4951514;29;20039;-70
2023/03/24 04:06:44;;;;;;;8.25;6.97;;;;;;;9.81;100.00;95265.00;4955833;29;20019;-69
2023/03/24 04:09:13;;;;;;;11.13;7.60;;;;;;;10.04;100.00;95270.69;4956102;29;20022;-69
2023/03/24 04:12:09;;;;;;;9.75;7.38;;;;;;;9.99;100.00;95265.84;4951789;29;20436;-69
2023/03/24 04:14:57;;;;;;;9.00;7.70;;;;;;;9.86;100.00;95266.22;4956009;29;20025;-69
2023/03/24 04:17:44;;;;;;;14.88;11.63;;;;;;;9.77;100.00;95274.16;4942265;29;20078;-69
2023/03/24 04:20:15;;;;;;;11.15;9.95;;;;;;;9.71;100.00;95272.94;4954954;29;20062;-70
2023/03/24 04:23:03;;;;;;;11.00;9.35;;;;;;;9.70;100.00;95282.63;4944478;29;20019;-69
2023/03/24 04:25:36;;;;;;;8.73;7.60;;;;;;;9.71;100.00;95284.28;4949797;29;20050;-69
2023/03/24 04:28:30;;;;;;;9.82;8.32;;;;;;;9.70;100.00;95287.91;4949176;29;20030;-69
2023/03/24 04:30:56;;;;;;;9.48;8.60;;;;;;;9.73;100.00;95284.16;4949614;29;20456;-70
2023/03/24 04:33:47;;;;;;;14.20;9.43;;;;;;;9.73;100.00;95271.00;4957468;29;20055;-70
2023/03/24 04:36:30;;;;;;;9.75;8.75;;;;;;;9.77;100.00;95261.00;4948231;29;20492;-69
2023/03/24 04:39:00;;;;;;;9.52;8.52;;;;;;;9.72;100.00;95240.41;4955913;29;20031;-69
2023/03/24 04:41:28;;;;;;;12.95;8.85;;;;;;;9.69;100.00;95230.19;4944863;29;20487;-69
2023/03/24 04:43:56;;;;;;;9.10;7.50;;;;;;;9.68;100.00;95233.81;4956964;29;20023;-70
2023/03/24 04:46:23;;;;;;;8.20;7.43;;;;;;;9.71;100.00;95238.75;4954398;29;20034;-69
2023/03/24 04:48:49;;;;;;;8.60;7.90;;;;;;;9.82;100.00;95251.72;4956170;29;20039;-69
2023/03/24 04:51:17;;;;;;;9.05;8.23;;;;;;;9.77;100.00;95256.59;4956900;29;20034;-69
2023/03/24 04:53:43;;;;;;;9.50;8.30;;;;;;;9.68;100.00;95274.06;4955826;29;20034;-69
2023/03/24 04:56:32;;;;;;;10.45;8.48;;;;;;;9.64;100.00;95277.97;4950302;29;20024;-69
2023/03/24 04:58:57;;;;;;;10.77;8.13;;;;;;;9.67;100.00;95296.09;4953127;29;20027;-69
2023/03/24 05:01:28;;;;;;;12.52;8.95;;;;;;;9.64;100.00;95319.19;4953181;29;20495;-70
2023/03/24 05:03:53;;;;;;;9.15;8.35;;;;;;;9.60;100.00;95329.16;4953323;29;20032;-70
2023/03/24 05:06:19;;;;;;;9.43;8.55;;;;;;;9.67;100.00;95342.56;4948280;29;20126;-70
2023/03/24 05:08:44;;;;;;;10.40;9.07;;;;;;;9.60;100.00;95361.53;4956278;29;20054;-69
2023/03/24 05:11:10;;;;;;;10.63;8.57;;;;;;;9.59;100.00;95374.81;4946682;29;20054;-69
2023/03/24 05:13:35;;;;;;;9.57;8.70;;;;;;;9.58;100.00;95400.28;4940328;29;20028;-69
2023/03/24 05:16:04;;;;;;;11.82;8.48;;;;;;;9.57;100.00;95413.53;4951849;29;20122;-70
2023/03/24 05:18:29;;;;;;;15.70;14.30;;;;;;;9.60;100.00;95427.25;4956136;29;20085;-70
2023/03/24 05:20:55;;;;;;;13.38;12.23;;;;;;;9.67;100.00;95435.41;4947983;29;20036;-69
2023/03/24 05:23:20;;;;;;;11.95;10.80;;;;;;;9.72;100.00;95448.09;4936848;29;20056;-70
2023/03/24 05:25:46;;;;;;;13.52;9.82;;;;;;;9.71;100.00;95449.91;4952958;29;20043;-69
2023/03/24 05:28:12;;;;;;;15.60;9.73;;;;;;;9.79;100.00;95467.59;4955251;28;20090;-70
2023/03/24 05:30:37;;;;;;;11.23;9.60;;;;;;;9.71;100.00;95468.31;4956180;29;20023;-70
2023/03/24 05:33:02;;;;;;;12.30;11.13;;;;;;;9.78;100.00;95473.84;4939248;29;20111;-70
2023/03/24 05:35:28;;;;;;;13.45;10.93;;;;;;;9.77;100.00;95461.66;4949340;29;20079;-73
2023/03/24 05:37:53;;;;;;;13.93;10.30;;;;;;;9.93;100.00;95454.94;4956533;29;20082;-73
2023/03/24 05:40:19;;;;;;;10.57;9.48;;;;;;;10.08;100.00;95439.56;4953820;29;20024;-72
2023/03/24 05:42:46;;;;;;;13.52;10.80;;;;;;;10.02;100.00;95440.94;4931456;29;20503;-72
2023/03/24 05:45:12;;;;;;;10.13;9.23;;;;;;;10.09;100.00;95434.13;4933414;29;20030;-73
2023/03/24 05:47:37;;;;;;;10.45;9.55;;;;;;;10.04;100.00;95429.28;4935073;29;20583;-73
2023/03/24 05:50:03;;;;;;;14.55;9.43;;;;;;;10.02;100.00;95425.16;4955130;28;20023;-72
2023/03/24 05:52:30;;;;;;;11.05;9.05;;;;;;;9.96;100.00;95423.13;4952199;29;20223;-72
2023/03/24 05:54:56;;;;;;;10.02;9.15;;;;;;;9.97;100.00;95419.53;4950012;29;20027;-72
2023/03/24 05:57:21;;;;;;;13.23;8.50;;;;;;;9.93;100.00;95421.59;4952250;29;20059;-72
2023/03/24 05:59:47;;;;;;;9.10;7.85;;;;;;;9.96;100.00;95418.69;4950313;29;20024;-72
2023/03/24 06:02:12;;;;;;;11.73;8.23;;;;;;;9.91;100.00;95420.91;4944341;29;20103;-72
2023/03/24 06:04:38;;;;;;;8.70;8.00;;;;;;;9.93;100.00;95418.97;4951198;29;20055;-73
2023/03/24 06:07:03;;;;;;;8.02;7.25;;;;;;;10.02;100.00;95431.25;4950941;29;20055;-72
2023/03/24 06:09:31;;;;;;;9.90;8.60;;;;;;;9.92;100.00;95432.25;4953005;29;20027;-73
2023/03/24 06:12:01;;;;;;;8.80;8.00;;;;;;;9.82;100.00;95434.91;4941419;29;20039;-72
2023/03/24 06:14:26;;;;;;;10.10;9.02;;;;;;;9.79;100.00;95430.78;4953477;29;20459;-73
2023/03/24 06:16:52;;;;;;;10.70;9.63;;;;;;;9.77;100.00;95443.25;4959436;29;20047;-73
2023/03/24 06:19:21;;;;;;;10.18;9.18;;;;;;;9.74;100.00;95446.97;4942333;29;20027;-72
2023/03/24 06:21:49;;;;;;;9.35;8.50;;;;;;;9.78;100.00;95451.94;4946625;29;20038;-72
2023/03/24 06:24:15;;;;;;;8.88;8.07;;;;;;;9.81;100.00;95459.56;4959338;29;20369;-72
2023/03/24 06:26:43;;;;;;;9.00;8.18;;;;;;;9.81;100.00;95468.28;4951689;29;20039;-72
2023/03/24 06:29:09;;;;;;;9.45;8.38;;;;;;;9.81;100.00;95464.81;4953318;29;20499;-73
2023/03/24 06:31:36;;;;;;;9.50;8.55;;;;;;;9.81;100.00;95459.56;4958426;29;20027;-72
2023/03/24 06:34:03;;;;;;;14.82;12.15;;;;;;;9.83;100.00;95476.84;4959365;29;20026;-72
2023/03/24 06:36:28;;;;;;;16.10;11.80;;;;;;;9.86;100.00;95467.88;4965837;28;20419;-73
2023/03/24 06:38:54;;;;;;;16.13;14.40;;;;;;;9.91;100.00;95473.50;4957603;28;20032;-72
2023/03/24 06:41:19;;;;;;;20.52;16.23;;;;;;;9.94;100.00;95460.06;4959896;29;20035;-72
2023/03/24 06:43:45;;;;;;;17.23;13.90;;;;;;;10.17;100.00;95444.78;4955268;29;20022;-72
2023/03/24 06:46:10;;;;;;;12.55;9.45;;;;;;;10.28;100.00;95435.84;4952315;29;20035;-72
2023/03/24 06:48:37;;;;;;;11.05;8.25;;;;;;;10.43;100.00;95438.00;4952002;29;20115;-72
2023/03/24 06:51:02;;;;;;;10.65;8.23;;;;;;;10.41;100.00;95422.38;4953137;28;20020;-72
2023/03/24 06:53:28;;;;;;;17.80;8.80;;;;;;;10.22;100.00;95414.56;4947225;29;20048;-73
2023/03/24 06:55:53;;;;;;;8.98;8.07;;;;;;;10.23;100.00;95424.91;4957162;29;20496;-75
2023/03/24 06:58:19;;;;;;;16.35;8.02;;;;;;;10.11;100.00;95416.41;4955891;29;20091;-73
2023/03/24 07:00:47;;;;;;;10.38;8.73;;;;;;;10.04;100.00;95410.88;4958727;29;20118;-72
2023/03/24 07:03:14;;;;;;;9.48;8.57;;;;;;;10.12;100.00;95407.53;4950992;29;20019;-72
2023/03/24 07:05:42;;;;;;;9.82;7.82;;;;;;;10.20;100.00;95400.72;4956229;29;20087;-75
2023/03/24 07:08:08;;;;;;;9.63;8.00;;;;;;;10.18;100.00;95412.22;4957817;29;20090;-74
2023/03/24 07:10:41;;;;;;;7.55;6.72;;;;;;;10.26;100.00;95418.53;4952900;29;20043;-69
2023/03/24 07:13:07;;;;;;;6.90;6.30;;;;;;;10.36;100.00;95423.75;4958400;29;20035;-70
2023/03/24 07:15:32;;;;;;;9.52;8.65;;;;;;;10.38;100.00;95424.44;4954783;29;20067;-69
2023/03/24 07:17:58;;;;;;;8.85;8.02;;;;;;;10.36;100.00;95429.03;4958719;29;20098;-68
2023/03/24 07:20:23;;;;;;;11.27;8.57;;;;;;;10.39;100.00;95437.47;4939716;29;20030;-69
2023/03/24 07:22:49;;;;;;;9.05;8.25;;;;;;;10.35;100.00;95443.16;4958196;29;20039;-70
2023/03/24 07:25:18;;;;;;;8.55;7.78;;;;;;;10.35;100.00;95451.06;4956310;29;20090;-70
2023/03/24 07:27:44;;;;;;;10.07;7.20;;;;;;;10.55;100.00;95481.59;4957345;29;20023;-70
2023/03/24 07:30:10;;;;;;;7.80;7.00;;;;;;;10.46;100.00;95491.19;4957245;29;20071;-70
2023/03/24 07:32:38;;;;;;;7.55;6.35;;;;;;;10.40;100.00;95498.81;4935251;29;20016;-70
2023/03/24 07:35:10;;;;;;;9.82;7.60;;;;;;;10.39;100.00;95502.41;4952934;28;20027;-70
2023/03/24 07:37:36;;;;;;;11.15;8.05;;;;;;;10.52;100.00;95495.06;4946902;29;20019;-71
2023/03/24 07:40:05;;;;;;;7.45;6.75;;;;;;;10.52;100.00;95487.16;4958288;29;20055;-71
2023/03/24 07:42:31;;;;;;;7.50;6.50;;;;;;;10.51;100.00;95484.66;4953986;29;20035;-71
2023/03/24 07:44:56;;;;;;;7.97;7.10;;;;;;;10.55;100.00;95486.84;4957197;28;20023;-72
2023/03/24 07:47:22;;;;;;;9.25;7.60;;;;;;;10.62;100.00;95483.63;4952340;29;20047;-76
2023/03/24 07:49:47;;;;;;;10.60;7.43;;;;;;;10.65;100.00;95467.53;4954899;28;20023;-75
2023/03/24 07:52:13;;;;;;;8.57;7.78;;;;;;;10.77;100.00;95476.88;4949673;28;20027;-71
2023/03/24 07:54:38;;;;;;;10.20;7.43;;;;;;;10.90;100.00;95479.16;4950955;29;20047;-71
2023/03/24 07:57:04;;;;;;;8.77;7.45;;;;;;;11.03;100.00;95486.69;4952916;29;20031;-72
2023/03/24 07:59:30;;;;;;;8.55;7.75;;;;;;;11.07;100.00;95481.97;4932107;29;20038;-71
2023/03/24 08:01:55;;;;;;;8.13;7.43;;;;;;;11.04;100.00;95490.97;4946791;28;20132;-71
2023/03/24 08:04:21;;;;;;;9.38;8.45;;;;;;;10.92;100.00;95492.16;4945951;29;20031;-71
2023/03/24 08:06:46;;;;;;;8.80;8.00;;;;;;;10.82;100.00;95482.53;4929603;29;20098;-71
2023/03/24 08:09:13;;;;;;;10.07;8.05;;;;;;;10.79;100.00;95476.72;4931207;29;20023;-71
2023/03/24 08:11:38;;;;;;;9.02;8.20;;;;;;;10.63;100.00;95483.50;4956827;29;20042;-71
2023/03/24 08:14:04;;;;;;;9.88;8.27;;;;;;;10.55;100.00;95480.75;4952878;29;20016;-71
2023/03/24 08:16:29;;;;;;;12.07;10.52;;;;;;;10.54;100.00;95498.34;4936478;29;20037;-71
2023/03/24 08:18:58;;;;;;;12.68;10.38;;;;;;;10.55;100.00;95497.38;4943447;28;20561;-71
2023/03/24 08:21:24;;;;;;;14.52;9.10;;;;;;;10.58;100.00;95496.25;4956003;29;20031;-71
2023/03/24 08:23:50;;;;;;;13.90;11.15;;;;;;;10.58;100.00;95496.25;4955662;29;20162;-71
2023/03/24 08:26:16;;;;;;;14.02;12.00;;;;;;;10.60;100.00;95483.75;4961530;28;20562;-71
2023/03/24 08:28:41;;;;;;;9.88;8.88;;;;;;;10.60;100.00;95486.38;4963945;28;20102;-71
2023/03/24 08:31:07;;;;;;;10.23;8.35;;;;;;;10.74;100.00;95491.16;4952569;29;20031;-71
2023/03/24 08:33:34;;;;;;;11.02;8.50;;;;;;;10.85;100.00;95486.69;4940665;28;20106;-70
2023/03/24 08:35:59;;;;;;;8.90;8.10;;;;;;;11.12;100.00;95488.41;4943081;29;20031;-70
2023/03/24 08:38:29;;;;;;;11.18;9.25;;;;;;;11.60;100.00;95474.97;4945484;29;20023;-71
2023/03/24 08:40:57;;;;;;;8.48;7.55;;;;;;;12.30;100.00;95468.00;4936394;29;20361;-71
2023/03/24 08:43:23;;;;;;;9.52;8.35;;;;;;;12.67;100.00;95465.97;4953264;29;20027;-71
2023/03/24 08:45:49;;;;;;;8.75;7.63;;;;;;;12.60;100.00;95477.19;4951161;28;20023;-71
2023/03/24 08:48:14;;;;;;;12.15;7.85;;;;;;;12.56;100.00;95470.59;4953008;28;20044;-71
2023/03/24 08:50:41;;;;;;;11.55;9.43;;;;;;;12.55;100.00;95463.66;4953110;29;20033;-71
2023/03/24 08:53:08;;;;;;;9.35;7.75;;;;;;;13.01;100.00;95452.69;4932548;29;20023;-71
2023/03/24 08:55:33;;;;;;;9.35;7.82;;;;;;;13.60;99.67;95456.25;4950127;29;20027;-71
2023/03/24 08:58:00;;;;;;;9.95;9.07;;;;;;;13.75;98.36;95451.91;4947681;29;20068;-71
2023/03/24 09:00:25;;;;;;;8.25;7.45;;;;;;;13.85;97.14;95443.78;4949723;29;20636;-71
2023/03/24 09:02:53;;;;;;;7.63;6.18;;;;;;;13.91;94.04;95439.63;4946783;29;20031;-72
2023/03/24 09:05:20;;;;;;;9.82;5.93;;;;;;;13.80;95.18;95434.69;4944601;29;20035;-71
2023/03/24 09:07:46;;;;;;;6.00;4.93;;;;;;;14.04;91.56;95434.66;4948524;29;20031;-72
2023/03/24 09:10:13;;;;;;;8.52;5.40;;;;;;;14.27;93.44;95425.97;4953343;29;20029;-72
2023/03/24 09:12:40;;;;;;;9.30;6.88;;;;;;;14.79;91.49;95438.81;4948111;29;20397;-71
2023/03/24 09:15:07;;;;;;;6.00;5.25;;;;;;;15.49;88.13;95442.34;4949622;29;20555;-72
2023/03/24 09:17:34;;;;;;;9.63;5.38;;;;;;;15.87;86.45;95462.72;4936123;29;20026;-72
2023/03/24 09:20:00;;;;;;;7.20;5.82;;;;;;;15.71;86.87;95453.09;4954620;29;20102;-72
2023/03/24 09:22:25;;;;;;;7.18;6.57;;;;;;;15.84;86.64;95450.63;4941538;29;20054;-72
2023/03/24 09:24:51;;;;;;;7.32;6.63;;;;;;;15.84;85.81;95455.13;4941820;29;20015;-72
2023/03/24 09:27:16;;;;;;;7.53;6.72;;;;;;;15.93;86.39;95458.56;4953236;29;20053;-72
2023/03/24 09:29:43;;;;;;;7.85;7.15;;;;;;;15.77;85.90;95460.31;4955543;29;20019;-72
2023/03/24 09:32:09;;;;;;;7.40;6.00;;;;;;;15.42;86.59;95474.03;4949155;29;20023;-72
2023/03/24 09:34:37;;;;;;;6.88;6.18;;;;;;;15.04;88.29;95485.41;4952515;29;20026;-72
2023/03/24 09:37:05;;;;;;;9.20;7.15;;;;;;;14.55;88.69;95497.03;4933342;29;20481;-72
2023/03/24 09:39:31;;;;;;;7.50;6.18;;;;;;;14.24;90.88;95504.91;4950332;29;20483;-72
2023/03/24 09:41:56;;;;;;;5.80;5.30;;;;;;;14.01;92.21;95505.63;4954831;29;20026;-72
2023/03/24 09:44:35;;;;;;;6.03;5.30;;;;;;;14.13;92.54;95516.69;4937957;29;20027;-72
2023/03/24 09:47:28;;;;;;;8.23;5.50;;;;;;;13.93;91.63;95524.97;4950330;28;20051;-72
2023/03/24 09:49:59;;;;;;;8.82;5.63;;;;;;;13.68;91.92;95519.69;4948863;29;20083;-71
2023/03/24 09:52:33;;;;;;;7.38;6.70;;;;;;;13.34;94.11;95536.50;4959158;29;20025;-72
2023/03/24 09:55:02;;;;;;;7.53;6.15;;;;;;;13.11;94.64;95538.94;4952804;29;20023;-73
2023/03/24 09:57:36;;;;;;;6.35;5.72;;;;;;;13.12;96.45;95522.91;4936404;29;20129;-72
2023/03/24 10:00:14;;;;;;;10.27;7.78;;;;;;;12.87;97.73;95536.06;4957004;29;20560;-71
2023/03/24 10:02:40;;;;;;;9.25;8.35;;;;;;;12.90;97.41;95527.81;4947156;29;20114;-71
2023/03/24 10:05:16;;;;;;;8.90;7.95;;;;;;;13.01;98.47;95533.78;4938783;29;20047;-71
2023/03/24 10:07:50;;;;;;;9.43;7.78;;;;;;;13.28;97.46;95532.72;4949358;28;20510;-71
2023/03/24 10:10:40;;;;;;;9.02;8.05;;;;;;;13.43;97.36;95532.06;4955614;29;20027;-72
2023/03/24 10:13:14;;;;;;;8.45;7.60;;;;;;;13.43;95.81;95530.28;4942189;29;20032;-72
2023/03/24 10:15:52;;;;;;;10.57;7.25;;;;;;;13.43;96.76;95513.56;4945824;29;20042;-71
2023/03/24 10:18:39;;;;;;;10.43;6.93;;;;;;;13.61;93.35;95519.53;4957744;29;20047;-71
2023/03/24 10:21:24;;;;;;;6.82;6.10;;;;;;;13.68;92.99;95513.56;4940411;29;20046;-72
2023/03/24 10:24:18;;;;;;;6.15;5.65;;;;;;;14.12;93.34;95520.31;4937971;29;20031;-71
2023/03/24 10:27:13;;;;;;;7.47;6.20;;;;;;;14.40;93.25;95520.75;4949414;29;20031;-72
2023/03/24 10:29:39;;;;;;;7.93;7.22;;;;;;;14.55;89.39;95515.56;4934672;29;20038;-72
2023/03/24 10:32:21;;;;;;;7.65;6.95;;;;;;;14.43;89.08;95514.28;4954304;29;20407;-72
2023/03/24 10:34:52;;;;;;;7.60;5.68;;;;;;;14.16;90.37;95513.69;4957615;29;20521;-71
2023/03/24 10:37:18;;;;;;;9.82;6.00;;;;;;;14.02;89.24;95504.63;4952628;29;20074;-72
2023/03/24 10:39:43;;;;;;;9.25;8.45;;;;;;;14.07;90.54;95520.00;4957299;29;20027;-74
2023/03/24 10:42:17;;;;;;;6.43;5.93;;;;;;;14.03;90.69;95506.28;4956509;29;20031;-72
2023/03/24 10:44:44;;;;;;;5.72;5.13;;;;;;;14.23;90.85;95508.56;4956999;29;20531;-74
2023/03/24 10:47:12;;;;;;;5.80;5.20;;;;;;;14.19;89.63;95502.75;4952368;29;21511;-75
2023/03/24 10:50:00;;;;;;;6.05;5.45;;;;;;;14.18;88.90;95498.47;4957354;29;20023;-72
2023/03/24 10:52:27;;;;;;;6.93;5.50;;;;;;;14.22;87.10;95502.41;4937019;29;20086;-72
2023/03/24 10:55:02;;;;;;;6.07;5.57;;;;;;;14.16;87.72;95496.00;4955201;28;20027;-72
2023/03/24 10:57:28;;;;;;;7.00;6.03;;;;;;;14.21;86.70;95497.31;4950503;29;20023;-72
2023/03/24 11:00:00;;;;;;;5.05;4.65;;;;;;;14.44;87.53;95487.63;4946750;29;20067;-71
2023/03/24 11:02:29;;;;;;;6.25;5.65;;;;;;;14.22;87.93;95489.19;4947211;29;20114;-72
2023/03/24 11:05:04;;;;;;;6.85;6.15;;;;;;;14.33;87.90;95478.25;4944898;29;20090;-71
2023/03/24 11:07:39;;;;;;;4.80;4.40;;;;;;;14.38;87.26;95475.09;4957994;29;20059;-72
2023/03/24 11:10:14;;;;;;;5.03;4.15;;;;;;;14.30;88.71;95473.28;4956617;29;20031;-71
2023/03/24 11:12:41;;;;;;;4.88;4.45;;;;;;;14.32;86.52;95473.09;4957333;29;20027;-71
2023/03/24 11:15:20;;;;;;;6.30;5.70;;;;;;;14.22;86.86;95470.66;4954729;28;20032;-71
2023/03/24 11:17:55;;;;;;;8.65;7.85;;;;;;;14.13;85.51;95456.59;4944409;29;20046;-75
2023/03/24 11:20:26;;;;;;;6.57;4.53;;;;;;;14.04;85.70;95465.56;4933111;29;20056;-71
2023/03/24 11:22:58;;;;;;;5.15;4.65;;;;;;;13.84;85.40;95462.50;4952862;29;20062;-72
2023/03/24 11:25:28;;;;;;;5.07;4.65;;;;;;;13.85;87.11;95448.25;4945737;29;20407;-72
2023/03/24 11:28:05;;;;;;;5.05;4.60;;;;;;;14.14;88.08;95460.91;4957954;29;20023;-71
2023/03/24 11:30:45;;;;;;;5.43;4.30;;;;;;;14.32;88.44;95446.63;4957490;29;20146;-71
2023/03/24 11:33:19;;;;;;;7.80;4.60;;;;;;;14.45;87.72;95446.91;4948216;29;20098;-71
2023/03/24 11:35:45;;;;;;;5.43;4.93;;;;;;;14.56;86.56;95451.00;4944737;29;20051;-72
2023/03/24 11:38:16;;;;;;;5.15;4.65;;;;;;;14.49;85.02;95465.09;4939995;29;20063;-72
2023/03/24 11:40:53;;;;;;;4.22;3.90;;;;;;;14.31;82.40;95456.41;4939708;29;20087;-71
2023/03/24 11:43:20;;;;;;;5.65;4.82;;;;;;;14.37;83.97;95469.94;4940498;29;20027;-71